sensor_id;sensor_type;location;lat;lon;timestamp;pressure;altitude;pressure_sealevel;temperature;humidity
70027;BME280;57506;50.092;15.804;2023-04-30T00:02:11;99251.13;;;9.88;100.00
70027;BME280;57506;50.092;15.804;2023-04-30T00:04:37;99253.72;;;9.81;100.00
70027;BME280;57506;50.092;15.804;2023-04-30T00:07:03;99252.69;;;9.82;100.00
70027;BME280;57506;50.092;15.804;2023-04-30T00:09:28;99257.78;;;9.77;100.00
70027;BME280;57506;50.092;15.804;2023-04-30T00:11:54;99246.50;;;9.67;100.00
70027;BME280;57506;50.092;15.804;2023-04-30T00:14:20;99250.13;;;9.74;100.00
70027;BME280;57506;50.092;15.804;2023-04-30T00:16:45;99247.88;;;9.63;100.00
70027;BME280;57506;50.092;15.804;2023-04-30T00:19:11;99238.63;;;9.51;100.00
70027;BME280;57506;50.092;15.804;2023-04-30T00:21:36;99233.72;;;9.39;100.00
70027;BME280;57506;50.092;15.804;2023-04-30T00:24:02;99211.81;;;9.28;100.00
70027;BME280;57506;50.092;15.804;2023-04-30T00:26:28;99224.69;;;9.32;100.00
70027;BME280;57506;50.092;15.804;2023-04-30T00:28:53;99204.84;;;9.33;100.00
70027;BME280;57506;50.092;15.804;2023-04-30T00:31:19;99227.00;;;9.79;100.00
70027;BME280;57506;50.092;15.804;2023-04-30T00:33:44;99236.41;;;9.39;100.00
70027;BME280;57506;50.092;15.804;2023-04-30T00:36:10;99214.31;;;9.29;100.00
70027;BME280;57506;50.092;15.804;2023-04-30T00:38:35;99224.34;;;9.50;100.00
70027;BME280;57506;50.092;15.804;2023-04-30T00:41:01;99221.81;;;9.48;100.00
70027;BME280;57506;50.092;15.804;2023-04-30T00:43:26;99237.59;;;9.52;100.00
70027;BME280;57506;50.092;15.804;2023-04-30T00:45:52;99233.06;;;9.37;100.00
70027;BME280;57506;50.092;15.804;2023-04-30T00:48:18;99225.25;;;9.42;100.00
70027;BME280;57506;50.092;15.804;2023-04-30T00:50:44;99238.25;;;9.39;100.00
70027;BME280;57506;50.092;15.804;2023-04-30T00:53:13;99232.13;;;9.30;100.00
70027;BME280;57506;50.092;15.804;2023-04-30T00:55:40;99219.78;;;9.36;100.00
70027;BME280;57506;50.092;15.804;2023-04-30T00:58:06;99223.31;;;9.36;100.00
70027;BME280;57506;50.092;15.804;2023-04-30T01:00:33;99239.53;;;9.43;100.00
70027;BME280;57506;50.092;15.804;2023-04-30T01:02:59;99246.75;;;9.42;100.00
70027;BME280;57506;50.092;15.804;2023-04-30T01:05:24;99233.91;;;9.38;100.00
70027;BME280;57506;50.092;15.804;2023-04-30T01:07:51;99177.13;;;9.03;100.00
70027;BME280;57506;50.092;15.804;2023-04-30T01:10:17;99226.38;;;9.33;100.00
70027;BME280;57506;50.092;15.804;2023-04-30T01:12:52;99233.72;;;9.39;100.00
70027;BME280;57506;50.092;15.804;2023-04-30T01:20:43;99220.16;;;9.33;100.00
70027;BME280;57506;50.092;15.804;2023-04-30T01:26:12;99216.81;;;9.31;100.00
70027;BME280;57506;50.092;15.804;2023-04-30T01:28:41;99218.84;;;9.29;100.00
70027;BME280;57506;50.092;15.804;2023-04-30T01:31:17;99224.22;;;9.29;100.00
70027;BME280;57506;50.092;15.804;2023-04-30T01:33:42;99216.34;;;9.27;100.00
70027;BME280;57506;50.092;15.804;2023-04-30T01:36:25;99219.25;;;9.40;100.00
70027;BME280;57506;50.092;15.804;2023-04-30T01:41:59;99205.88;;;9.18;100.00
70027;BME280;57506;50.092;15.804;2023-04-30T01:45:07;99228.13;;;9.26;100.00
70027;BME280;57506;50.092;15.804;2023-04-30T01:47:49;99219.03;;;9.27;100.00
70027;BME280;57506;50.092;15.804;2023-04-30T01:50:33;99229.25;;;9.46;100.00
70027;BME280;57506;50.092;15.804;2023-04-30T01:53:05;99238.16;;;9.32;100.00
70027;BME280;57506;50.092;15.804;2023-04-30T01:55:50;99253.63;;;9.30;100.00
70027;BME280;57506;50.092;15.804;2023-04-30T01:58:16;99254.28;;;9.32;100.00
70027;BME280;57506;50.092;15.804;2023-04-30T02:00:43;99229.41;;;9.16;100.00
70027;BME280;57506;50.092;15.804;2023-04-30T02:03:08;99221.88;;;9.11;100.00
70027;BME280;57506;50.092;15.804;2023-04-30T02:05:34;99247.34;;;9.23;100.00
70027;BME280;57506;50.092;15.804;2023-04-30T02:07:59;99248.06;;;9.17;100.00
70027;BME280;57506;50.092;15.804;2023-04-30T02:10:26;99260.31;;;9.20;100.00
70027;BME280;57506;50.092;15.804;2023-04-30T02:12:52;99251.75;;;9.16;100.00
70027;BME280;57506;50.092;15.804;2023-04-30T02:15:18;99252.06;;;9.21;100.00
70027;BME280;57506;50.092;15.804;2023-04-30T02:17:44;99255.41;;;9.23;100.00
70027;BME280;57506;50.092;15.804;2023-04-30T02:20:10;99234.06;;;9.07;100.00
70027;BME280;57506;50.092;15.804;2023-04-30T02:22:36;99250.75;;;9.17;100.00
70027;BME280;57506;50.092;15.804;2023-04-30T02:25:01;99244.22;;;9.11;100.00
70027;BME280;57506;50.092;15.804;2023-04-30T02:27:30;99237.19;;;9.10;100.00
70027;BME280;57506;50.092;15.804;2023-04-30T02:29:56;99246.50;;;9.23;100.00
70027;BME280;57506;50.092;15.804;2023-04-30T02:32:22;99246.38;;;9.16;100.00
70027;BME280;57506;50.092;15.804;2023-04-30T02:34:48;99242.31;;;9.05;100.00
70027;BME280;57506;50.092;15.804;2023-04-30T02:37:14;99264.19;;;9.17;100.00
70027;BME280;57506;50.092;15.804;2023-04-30T02:39:39;99250.09;;;9.15;100.00
70027;BME280;57506;50.092;15.804;2023-04-30T02:42:06;99252.97;;;9.13;100.00
70027;BME280;57506;50.092;15.804;2023-04-30T02:44:32;99274.66;;;9.27;100.00
70027;BME280;57506;50.092;15.804;2023-04-30T02:46:58;99262.16;;;9.19;100.00
70027;BME280;57506;50.092;15.804;2023-04-30T02:49:24;99245.47;;;9.09;100.00
70027;BME280;57506;50.092;15.804;2023-04-30T02:51:49;99269.22;;;9.20;100.00
70027;BME280;57506;50.092;15.804;2023-04-30T02:54:15;99270.88;;;9.21;100.00
70027;BME280;57506;50.092;15.804;2023-04-30T02:56:41;99264.84;;;9.19;100.00
70027;BME280;57506;50.092;15.804;2023-04-30T02:59:06;99264.72;;;9.12;100.00
70027;BME280;57506;50.092;15.804;2023-04-30T03:01:32;99275.97;;;9.16;100.00
70027;BME280;57506;50.092;15.804;2023-04-30T03:03:58;99264.47;;;9.07;100.00
70027;BME280;57506;50.092;15.804;2023-04-30T03:06:26;99282.72;;;9.12;100.00
70027;BME280;57506;50.092;15.804;2023-04-30T03:08:51;99293.63;;;9.10;100.00
70027;BME280;57506;50.092;15.804;2023-04-30T03:11:17;99293.00;;;9.08;100.00
70027;BME280;57506;50.092;15.804;2023-04-30T03:13:42;99275.56;;;9.04;100.00
70027;BME280;57506;50.092;15.804;2023-04-30T03:16:08;99271.97;;;9.27;100.00
70027;BME280;57506;50.092;15.804;2023-04-30T03:18:33;99283.66;;;9.19;100.00
70027;BME280;57506;50.092;15.804;2023-04-30T03:20:59;99265.50;;;9.21;100.00
70027;BME280;57506;50.092;15.804;2023-04-30T03:23:27;99267.16;;;9.22;100.00
70027;BME280;57506;50.092;15.804;2023-04-30T03:25:53;99291.78;;;9.11;100.00
70027;BME280;57506;50.092;15.804;2023-04-30T03:28:19;99279.38;;;9.10;100.00
70027;BME280;57506;50.092;15.804;2023-04-30T03:30:45;99293.47;;;9.12;100.00
70027;BME280;57506;50.092;15.804;2023-04-30T03:33:11;99292.44;;;9.13;100.00
70027;BME280;57506;50.092;15.804;2023-04-30T03:35:36;99285.50;;;9.04;100.00
70027;BME280;57506;50.092;15.804;2023-04-30T03:38:02;99282.16;;;9.02;100.00
70027;BME280;57506;50.092;15.804;2023-04-30T03:40:27;99303.19;;;9.13;100.00
70027;BME280;57506;50.092;15.804;2023-04-30T03:42:54;99297.16;;;9.11;100.00
70027;BME280;57506;50.092;15.804;2023-04-30T03:45:20;99308.41;;;9.15;100.00
70027;BME280;57506;50.092;15.804;2023-04-30T03:47:45;99317.59;;;9.20;100.00
70027;BME280;57506;50.092;15.804;2023-04-30T03:50:11;99304.41;;;9.10;100.00
70027;BME280;57506;50.092;15.804;2023-04-30T03:52:37;99308.88;;;9.18;100.00
70027;BME280;57506;50.092;15.804;2023-04-30T03:55:04;99318.44;;;9.21;100.00
70027;BME280;57506;50.092;15.804;2023-04-30T03:57:30;99322.16;;;9.20;100.00
70027;BME280;57506;50.092;15.804;2023-04-30T03:59:55;99311.56;;;9.18;100.00
70027;BME280;57506;50.092;15.804;2023-04-30T04:02:21;99313.78;;;9.15;100.00
70027;BME280;57506;50.092;15.804;2023-04-30T04:04:47;99311.84;;;9.08;100.00
70027;BME280;57506;50.092;15.804;2023-04-30T04:07:13;99313.78;;;9.15;100.00
70027;BME280;57506;50.092;15.804;2023-04-30T04:09:39;99330.56;;;9.17;100.00
70027;BME280;57506;50.092;15.804;2023-04-30T04:12:04;99317.38;;;9.07;100.00
70027;BME280;57506;50.092;15.804;2023-04-30T04:14:30;99329.72;;;9.16;100.00
70027;BME280;57506;50.092;15.804;2023-04-30T04:16:56;99316.56;;;9.06;100.00
70027;BME280;57506;50.092;15.804;2023-04-30T04:19:25;99326.91;;;9.09;100.00
70027;BME280;57506;50.092;15.804;2023-04-30T04:21:51;99344.13;;;9.23;100.00
70027;BME280;57506;50.092;15.804;2023-04-30T04:24:16;99347.84;;;9.22;100.00
70027;BME280;57506;50.092;15.804;2023-04-30T04:26:42;99343.75;;;9.26;100.00
70027;BME280;57506;50.092;15.804;2023-04-30T04:29:07;99352.94;;;9.32;100.00
70027;BME280;57506;50.092;15.804;2023-04-30T04:31:34;99363.84;;;9.38;100.00
70027;BME280;57506;50.092;15.804;2023-04-30T04:34:01;99362.81;;;9.39;100.00
70027;BME280;57506;50.092;15.804;2023-04-30T04:36:28;99359.81;;;9.34;100.00
70027;BME280;57506;50.092;15.804;2023-04-30T04:38:57;99364.94;;;9.44;100.00
70027;BME280;57506;50.092;15.804;2023-04-30T04:43:54;99378.16;;;9.54;100.00
70027;BME280;57506;50.092;15.804;2023-04-30T04:46:23;99380.75;;;9.62;100.00
70027;BME280;57506;50.092;15.804;2023-04-30T04:48:48;99402.47;;;9.75;100.00
70027;BME280;57506;50.092;15.804;2023-04-30T04:51:14;99406.94;;;9.82;100.00
70027;BME280;57506;50.092;15.804;2023-04-30T04:53:39;99409.38;;;9.92;100.00
70027;BME280;57506;50.092;15.804;2023-04-30T04:56:05;99417.38;;;10.00;100.00
70027;BME280;57506;50.092;15.804;2023-04-30T04:58:31;99405.28;;;9.96;100.00
70027;BME280;57506;50.092;15.804;2023-04-30T05:00:57;99427.97;;;10.16;100.00
70027;BME280;57506;50.092;15.804;2023-04-30T05:03:24;99389.59;;;10.00;100.00
70027;BME280;57506;50.092;15.804;2023-04-30T05:05:51;99422.31;;;10.26;100.00
70027;BME280;57506;50.092;15.804;2023-04-30T05:08:17;99444.88;;;10.40;100.00
70027;BME280;57506;50.092;15.804;2023-04-30T05:10:42;99434.75;;;10.27;100.00
70027;BME280;57506;50.092;15.804;2023-04-30T05:13:07;99455.38;;;10.49;100.00
70027;BME280;57506;50.092;15.804;2023-04-30T05:15:33;99458.91;;;10.50;100.00
70027;BME280;57506;50.092;15.804;2023-04-30T05:17:58;99453.72;;;10.48;100.00
70027;BME280;57506;50.092;15.804;2023-04-30T05:20:24;99464.28;;;10.65;100.00
70027;BME280;57506;50.092;15.804;2023-04-30T05:22:49;99468.38;;;10.75;100.00
70027;BME280;57506;50.092;15.804;2023-04-30T05:25:15;99446.81;;;10.61;100.00
70027;BME280;57506;50.092;15.804;2023-04-30T05:27:40;99480.19;;;10.60;100.00
70027;BME280;57506;50.092;15.804;2023-04-30T05:30:06;99478.16;;;10.47;100.00
70027;BME280;57506;50.092;15.804;2023-04-30T05:32:33;99472.94;;;10.31;100.00
70027;BME280;57506;50.092;15.804;2023-04-30T05:34:59;99472.09;;;10.30;100.00
70027;BME280;57506;50.092;15.804;2023-04-30T05:37:24;99485.28;;;10.40;100.00
70027;BME280;57506;50.092;15.804;2023-04-30T05:39:50;99489.28;;;10.44;100.00
70027;BME280;57506;50.092;15.804;2023-04-30T05:42:18;99474.44;;;10.48;100.00
70027;BME280;57506;50.092;15.804;2023-04-30T05:44:44;99472.88;;;10.54;100.00
70027;BME280;57506;50.092;15.804;2023-04-30T05:47:09;99485.09;;;10.56;100.00
70027;BME280;57506;50.092;15.804;2023-04-30T05:49:35;99476.41;;;10.54;100.00
70027;BME280;57506;50.092;15.804;2023-04-30T05:52:00;99478.91;;;10.70;100.00
70027;BME280;57506;50.092;15.804;2023-04-30T05:54:28;99498.75;;;10.99;100.00
70027;BME280;57506;50.092;15.804;2023-04-30T05:56:53;99501.50;;;11.05;100.00
70027;BME280;57506;50.092;15.804;2023-04-30T05:59:19;99508.47;;;11.14;100.00
70027;BME280;57506;50.092;15.804;2023-04-30T06:01:44;99506.00;;;11.34;100.00
70027;BME280;57506;50.092;15.804;2023-04-30T06:04:10;99505.09;;;11.48;100.00
70027;BME280;57506;50.092;15.804;2023-04-30T06:06:35;99489.28;;;11.45;100.00
70027;BME280;57506;50.092;15.804;2023-04-30T06:09:01;99512.16;;;11.71;100.00
70027;BME280;57506;50.092;15.804;2023-04-30T06:11:26;99497.41;;;11.88;100.00
70027;BME280;57506;50.092;15.804;2023-04-30T06:13:52;99514.47;;;12.16;100.00
70027;BME280;57506;50.092;15.804;2023-04-30T06:16:17;99525.13;;;12.24;100.00
70027;BME280;57506;50.092;15.804;2023-04-30T06:18:43;99526.53;;;12.20;100.00
70027;BME280;57506;50.092;15.804;2023-04-30T06:21:08;99532.38;;;12.17;100.00
70027;BME280;57506;50.092;15.804;2023-04-30T06:23:34;99513.75;;;12.01;100.00
70027;BME280;57506;50.092;15.804;2023-04-30T06:25:59;99501.00;;;11.95;100.00
70027;BME280;57506;50.092;15.804;2023-04-30T06:28:25;99526.66;;;12.34;100.00
70027;BME280;57506;50.092;15.804;2023-04-30T06:30:51;99527.06;;;12.31;100.00
70027;BME280;57506;50.092;15.804;2023-04-30T06:33:18;99521.19;;;12.27;100.00
70027;BME280;57506;50.092;15.804;2023-04-30T06:35:43;99529.97;;;12.36;100.00
70027;BME280;57506;50.092;15.804;2023-04-30T06:38:09;99525.84;;;12.40;100.00
70027;BME280;57506;50.092;15.804;2023-04-30T06:40:35;99523.03;;;12.54;100.00
70027;BME280;57506;50.092;15.804;2023-04-30T06:43:00;99534.31;;;12.58;100.00
70027;BME280;57506;50.092;15.804;2023-04-30T06:45:26;99528.19;;;12.77;100.00
70027;BME280;57506;50.092;15.804;2023-04-30T06:47:51;99511.56;;;12.80;100.00
70027;BME280;57506;50.092;15.804;2023-04-30T06:50:17;99520.28;;;12.76;100.00
70027;BME280;57506;50.092;15.804;2023-04-30T06:52:43;99511.19;;;12.55;100.00
70027;BME280;57506;50.092;15.804;2023-04-30T06:55:08;99522.41;;;12.52;100.00
70027;BME280;57506;50.092;15.804;2023-04-30T06:57:34;99525.41;;;12.36;100.00
70027;BME280;57506;50.092;15.804;2023-04-30T07:00:04;99547.47;;;12.40;100.00
70027;BME280;57506;50.092;15.804;2023-04-30T07:02:29;99547.22;;;12.35;100.00
70027;BME280;57506;50.092;15.804;2023-04-30T07:04:55;99528.56;;;12.40;100.00
70027;BME280;57506;50.092;15.804;2023-04-30T07:07:21;99510.22;;;12.35;100.00
70027;BME280;57506;50.092;15.804;2023-04-30T07:09:47;99528.53;;;12.68;100.00
70027;BME280;57506;50.092;15.804;2023-04-30T07:12:13;99525.88;;;12.74;100.00
70027;BME280;57506;50.092;15.804;2023-04-30T07:14:38;99547.44;;;12.95;100.00
70027;BME280;57506;50.092;15.804;2023-04-30T07:17:04;99548.66;;;13.00;100.00
70027;BME280;57506;50.092;15.804;2023-04-30T07:19:30;99542.75;;;12.83;100.00
70027;BME280;57506;50.092;15.804;2023-04-30T07:21:56;99545.13;;;12.92;100.00
70027;BME280;57506;50.092;15.804;2023-04-30T07:24:22;99525.41;;;13.05;98.89
70027;BME280;57506;50.092;15.804;2023-04-30T07:26:47;99527.78;;;13.21;96.33
70027;BME280;57506;50.092;15.804;2023-04-30T07:29:13;99540.59;;;13.54;94.89
70027;BME280;57506;50.092;15.804;2023-04-30T07:31:38;99539.78;;;13.66;95.85
70027;BME280;57506;50.092;15.804;2023-04-30T07:34:04;99523.38;;;14.01;96.88
70027;BME280;57506;50.092;15.804;2023-04-30T07:36:30;99536.06;;;13.87;86.77
70027;BME280;57506;50.092;15.804;2023-04-30T07:38:55;99487.25;;;13.41;81.88
70027;BME280;57506;50.092;15.804;2023-04-30T07:41:22;99531.63;;;13.53;77.84
70027;BME280;57506;50.092;15.804;2023-04-30T07:43:48;99513.06;;;13.50;78.84
70027;BME280;57506;50.092;15.804;2023-04-30T07:46:14;99546.53;;;14.10;85.02
70027;BME280;57506;50.092;15.804;2023-04-30T07:48:39;99519.19;;;13.72;80.98
70027;BME280;57506;50.092;15.804;2023-04-30T07:51:05;99547.75;;;13.88;81.05
70027;BME280;57506;50.092;15.804;2023-04-30T07:53:31;99543.59;;;14.18;78.03
70027;BME280;57506;50.092;15.804;2023-04-30T07:55:56;99548.22;;;14.44;80.26
70027;BME280;57506;50.092;15.804;2023-04-30T07:58:21;99528.97;;;13.86;78.30
70027;BME280;57506;50.092;15.804;2023-04-30T08:00:47;99542.50;;;13.73;79.87
70027;BME280;57506;50.092;15.804;2023-04-30T08:03:13;99551.34;;;13.27;80.35
70027;BME280;57506;50.092;15.804;2023-04-30T08:05:38;99556.31;;;13.24;81.42
70027;BME280;57506;50.092;15.804;2023-04-30T08:08:05;99540.25;;;13.16;83.25
70027;BME280;57506;50.092;15.804;2023-04-30T08:10:30;99535.63;;;13.10;89.29
70027;BME280;57506;50.092;15.804;2023-04-30T08:12:56;99536.16;;;13.33;86.48
70027;BME280;57506;50.092;15.804;2023-04-30T08:15:21;99560.22;;;13.69;83.10
70027;BME280;57506;50.092;15.804;2023-04-30T08:17:51;99542.09;;;13.83;81.38
70027;BME280;57506;50.092;15.804;2023-04-30T08:20:17;99556.94;;;13.93;83.18
70027;BME280;57506;50.092;15.804;2023-04-30T08:22:43;99544.00;;;14.02;76.14
70027;BME280;57506;50.092;15.804;2023-04-30T08:25:10;99554.84;;;14.22;74.43
70027;BME280;57506;50.092;15.804;2023-04-30T08:27:36;99542.97;;;14.10;72.80
70027;BME280;57506;50.092;15.804;2023-04-30T08:30:03;99553.13;;;14.80;72.87
70027;BME280;57506;50.092;15.804;2023-04-30T08:32:29;99552.63;;;15.16;67.38
70027;BME280;57506;50.092;15.804;2023-04-30T08:34:54;99528.34;;;15.28;73.91
70027;BME280;57506;50.092;15.804;2023-04-30T08:37:20;99545.00;;;14.87;68.50
70027;BME280;57506;50.092;15.804;2023-04-30T08:39:46;99558.56;;;14.87;65.54
70027;BME280;57506;50.092;15.804;2023-04-30T08:42:13;99542.75;;;14.77;70.95
70027;BME280;57506;50.092;15.804;2023-04-30T08:44:38;99542.38;;;14.41;70.02
70027;BME280;57506;50.092;15.804;2023-04-30T08:47:09;99557.38;;;14.10;69.86
70027;BME280;57506;50.092;15.804;2023-04-30T08:49:37;99535.66;;;13.77;71.35
70027;BME280;57506;50.092;15.804;2023-04-30T08:52:03;99564.19;;;13.73;71.33
70027;BME280;57506;50.092;15.804;2023-04-30T08:54:30;99541.00;;;13.51;68.78
70027;BME280;57506;50.092;15.804;2023-04-30T08:56:56;99573.50;;;13.57;62.73
70027;BME280;57506;50.092;15.804;2023-04-30T08:59:21;99557.28;;;13.71;64.36
70027;BME280;57506;50.092;15.804;2023-04-30T09:01:47;99555.47;;;13.91;63.36
70027;BME280;57506;50.092;15.804;2023-04-30T09:04:13;99515.25;;;13.94;66.83
70027;BME280;57506;50.092;15.804;2023-04-30T09:06:38;99544.22;;;14.33;64.22
70027;BME280;57506;50.092;15.804;2023-04-30T09:09:12;99534.25;;;14.41;65.55
70027;BME280;57506;50.092;15.804;2023-04-30T09:11:37;99546.09;;;14.66;63.38
70027;BME280;57506;50.092;15.804;2023-04-30T09:14:03;99547.72;;;14.93;67.53
70027;BME280;57506;50.092;15.804;2023-04-30T09:16:44;99522.28;;;14.68;68.13
70027;BME280;57506;50.092;15.804;2023-04-30T09:19:22;99553.63;;;14.51;64.53
70027;BME280;57506;50.092;15.804;2023-04-30T09:21:48;99521.91;;;14.18;67.97
70027;BME280;57506;50.092;15.804;2023-04-30T09:24:14;99528.59;;;13.96;66.48
70027;BME280;57506;50.092;15.804;2023-04-30T09:26:40;99555.66;;;13.89;67.87
70027;BME280;57506;50.092;15.804;2023-04-30T09:29:05;99539.41;;;13.89;71.57
70027;BME280;57506;50.092;15.804;2023-04-30T09:31:35;99538.59;;;14.28;69.23
70027;BME280;57506;50.092;15.804;2023-04-30T09:34:01;99548.16;;;14.64;66.27
70027;BME280;57506;50.092;15.804;2023-04-30T09:36:28;99542.28;;;14.87;63.24
70027;BME280;57506;50.092;15.804;2023-04-30T09:38:54;99552.38;;;14.53;66.10
70027;BME280;57506;50.092;15.804;2023-04-30T09:41:28;99565.50;;;14.50;62.45
70027;BME280;57506;50.092;15.804;2023-04-30T09:43:55;99557.56;;;14.35;65.01
70027;BME280;57506;50.092;15.804;2023-04-30T09:46:29;99557.78;;;14.20;60.65
70027;BME280;57506;50.092;15.804;2023-04-30T09:49:00;99539.44;;;14.49;60.80
70027;BME280;57506;50.092;15.804;2023-04-30T09:51:27;99548.56;;;14.81;60.75
70027;BME280;57506;50.092;15.804;2023-04-30T09:53:53;99541.81;;;15.10;62.94
70027;BME280;57506;50.092;15.804;2023-04-30T09:56:21;99529.88;;;15.11;58.81
70027;BME280;57506;50.092;15.804;2023-04-30T09:58:49;99545.03;;;15.31;58.83
70027;BME280;57506;50.092;15.804;2023-04-30T10:01:17;99545.66;;;15.40;59.45
70027;BME280;57506;50.092;15.804;2023-04-30T10:03:44;99537.16;;;15.17;62.87
70027;BME280;57506;50.092;15.804;2023-04-30T10:06:15;99538.47;;;15.01;61.97
70027;BME280;57506;50.092;15.804;2023-04-30T10:08:52;99517.91;;;14.67;64.13
70027;BME280;57506;50.092;15.804;2023-04-30T10:11:25;99552.34;;;14.73;65.94
70027;BME280;57506;50.092;15.804;2023-04-30T10:13:59;99555.03;;;14.80;63.68
70027;BME280;57506;50.092;15.804;2023-04-30T10:19:30;99549.41;;;15.39;64.02
70027;BME280;57506;50.092;15.804;2023-04-30T10:21:56;99542.19;;;15.64;65.20
70027;BME280;57506;50.092;15.804;2023-04-30T10:24:22;99543.16;;;15.77;65.46
70027;BME280;57506;50.092;15.804;2023-04-30T10:26:48;99517.56;;;15.53;64.31
70027;BME280;57506;50.092;15.804;2023-04-30T10:29:16;99517.59;;;15.46;62.54
70027;BME280;57506;50.092;15.804;2023-04-30T10:31:46;99495.72;;;15.41;63.05
70027;BME280;57506;50.092;15.804;2023-04-30T10:36:46;99535.50;;;15.16;61.71
70027;BME280;57506;50.092;15.804;2023-04-30T10:39:20;99522.59;;;15.49;66.13
70027;BME280;57506;50.092;15.804;2023-04-30T10:41:47;99514.81;;;15.21;60.13
70027;BME280;57506;50.092;15.804;2023-04-30T10:44:14;99513.34;;;15.25;61.85
70027;BME280;57506;50.092;15.804;2023-04-30T10:46:40;99512.03;;;15.28;63.86
70027;BME280;57506;50.092;15.804;2023-04-30T10:49:06;99533.59;;;15.23;62.08
70027;BME280;57506;50.092;15.804;2023-04-30T10:51:49;99509.50;;;14.88;61.30
70027;BME280;57506;50.092;15.804;2023-04-30T10:54:36;99519.31;;;14.89;63.26
70027;BME280;57506;50.092;15.804;2023-04-30T10:57:10;99527.63;;;15.01;63.53
70027;BME280;57506;50.092;15.804;2023-04-30T10:59:37;99515.50;;;15.48;67.48
70027;BME280;57506;50.092;15.804;2023-04-30T11:02:03;99503.69;;;15.99;62.94
70027;BME280;57506;50.092;15.804;2023-04-30T11:04:28;99492.03;;;15.92;63.11
70027;BME280;57506;50.092;15.804;2023-04-30T11:07:00;99511.66;;;15.69;57.54
70027;BME280;57506;50.092;15.804;2023-04-30T11:09:42;99508.69;;;15.32;61.31
70027;BME280;57506;50.092;15.804;2023-04-30T11:12:18;99514.94;;;15.33;61.41
70027;BME280;57506;50.092;15.804;2023-04-30T11:14:46;99515.59;;;15.73;59.21
70027;BME280;57506;50.092;15.804;2023-04-30T11:17:21;99515.91;;;15.90;58.69
70027;BME280;57506;50.092;15.804;2023-04-30T11:19:51;99508.31;;;16.23;62.89
70027;BME280;57506;50.092;15.804;2023-04-30T11:22:26;99512.63;;;16.74;56.93
70027;BME280;57506;50.092;15.804;2023-04-30T11:25:02;99509.78;;;16.87;53.26
70027;BME280;57506;50.092;15.804;2023-04-30T11:27:32;99508.47;;;16.90;57.47
70027;BME280;57506;50.092;15.804;2023-04-30T11:29:58;99517.47;;;17.08;55.55
70027;BME280;57506;50.092;15.804;2023-04-30T11:32:31;99498.31;;;16.17;57.00
70027;BME280;57506;50.092;15.804;2023-04-30T11:35:00;99505.13;;;16.26;58.87
70027;BME280;57506;50.092;15.804;2023-04-30T11:37:33;99517.69;;;15.71;58.75
70027;BME280;57506;50.092;15.804;2023-04-30T11:40:04;99509.28;;;15.41;61.33
70027;BME280;57506;50.092;15.804;2023-04-30T11:42:30;99491.63;;;15.19;62.80
70027;BME280;57506;50.092;15.804;2023-04-30T11:45:09;99520.44;;;15.20;61.87
70027;BME280;57506;50.092;15.804;2023-04-30T11:47:39;99513.72;;;15.29;62.52
70027;BME280;57506;50.092;15.804;2023-04-30T11:50:07;99512.13;;;15.59;63.01
70027;BME280;57506;50.092;15.804;2023-04-30T11:52:33;99504.44;;;15.56;58.32
70027;BME280;57506;50.092;15.804;2023-04-30T11:54:58;99507.78;;;15.83;59.57
70027;BME280;57506;50.092;15.804;2023-04-30T11:57:25;99498.69;;;15.96;59.24
70027;BME280;57506;50.092;15.804;2023-04-30T11:59:50;99487.78;;;16.02;58.41
70027;BME280;57506;50.092;15.804;2023-04-30T12:02:16;99491.31;;;16.03;57.65
70027;BME280;57506;50.092;15.804;2023-04-30T12:04:42;99481.75;;;16.43;58.89
70027;BME280;57506;50.092;15.804;2023-04-30T12:07:08;99497.53;;;16.78;59.82
70027;BME280;57506;50.092;15.804;2023-04-30T12:09:53;99481.94;;;17.03;61.02
70027;BME280;57506;50.092;15.804;2023-04-30T12:12:26;99483.91;;;17.14;56.74
70027;BME280;57506;50.092;15.804;2023-04-30T12:14:52;99492.41;;;16.88;55.07
70027;BME280;57506;50.092;15.804;2023-04-30T12:17:31;99501.47;;;16.82;55.53
70027;BME280;57506;50.092;15.804;2023-04-30T12:19:57;99474.53;;;16.74;52.96
70027;BME280;57506;50.092;15.804;2023-04-30T12:22:23;99499.34;;;16.84;53.17
70027;BME280;57506;50.092;15.804;2023-04-30T12:24:48;99493.56;;;17.10;51.39
70027;BME280;57506;50.092;15.804;2023-04-30T12:27:14;99494.84;;;17.56;55.70
70027;BME280;57506;50.092;15.804;2023-04-30T12:29:42;99500.41;;;17.79;52.43
70027;BME280;57506;50.092;15.804;2023-04-30T12:32:13;99496.47;;;16.97;53.67
70027;BME280;57506;50.092;15.804;2023-04-30T12:34:43;99497.34;;;16.73;56.37
70027;BME280;57506;50.092;15.804;2023-04-30T12:37:09;99507.06;;;16.44;58.14
70027;BME280;57506;50.092;15.804;2023-04-30T12:39:35;99480.22;;;16.29;60.42
70027;BME280;57506;50.092;15.804;2023-04-30T12:42:02;99497.44;;;16.66;59.25
70027;BME280;57506;50.092;15.804;2023-04-30T12:44:27;99481.19;;;16.78;56.77
70027;BME280;57506;50.092;15.804;2023-04-30T12:46:57;99505.25;;;16.99;55.28
70027;BME280;57506;50.092;15.804;2023-04-30T12:49:29;99487.53;;;17.08;53.26
70027;BME280;57506;50.092;15.804;2023-04-30T12:52:08;99506.88;;;17.37;57.31
70027;BME280;57506;50.092;15.804;2023-04-30T12:54:36;99500.16;;;17.51;53.48
70027;BME280;57506;50.092;15.804;2023-04-30T12:57:08;99477.47;;;17.39;54.65
70027;BME280;57506;50.092;15.804;2023-04-30T13:04:33;99487.00;;;17.48;53.28
70027;BME280;57506;50.092;15.804;2023-04-30T13:06:58;99485.97;;;17.31;53.27
70027;BME280;57506;50.092;15.804;2023-04-30T13:09:24;99494.81;;;16.96;53.51
70027;BME280;57506;50.092;15.804;2023-04-30T13:11:50;99492.97;;;16.90;54.17
70027;BME280;57506;50.092;15.804;2023-04-30T13:14:15;99485.38;;;17.29;52.85